createdAt,value
2018-12-13T00:00:38.171Z,1016.87
2018-12-13T00:01:38.165Z,1016.89
2018-12-13T00:02:38.171Z,1016.79
2018-12-13T00:03:38.173Z,1016.79
2018-12-13T00:04:38.177Z,1016.79
2018-12-13T00:05:38.177Z,1016.80
2018-12-13T00:06:38.199Z,1016.78
2018-12-13T00:07:38.193Z,1016.79
2018-12-13T00:08:38.194Z,1016.75
2018-12-13T00:09:38.201Z,1016.77
2018-12-13T00:10:38.201Z,1016.76
2018-12-13T00:11:38.203Z,1016.78
2018-12-13T00:12:38.225Z,1016.79
2018-12-13T00:13:38.212Z,1016.81
2018-12-13T00:14:38.228Z,1016.76
2018-12-13T00:15:38.222Z,1016.78
2018-12-13T00:16:38.239Z,1016.75
2018-12-13T00:17:38.228Z,1016.76
2018-12-13T00:18:38.231Z,1016.75
2018-12-13T00:19:38.243Z,1016.73
2018-12-13T00:20:38.261Z,1016.70
2018-12-13T00:21:38.248Z,1016.69
2018-12-13T00:22:38.267Z,1016.68
2018-12-13T00:23:38.259Z,1016.64
2018-12-13T00:24:38.258Z,1016.66
2018-12-13T00:25:38.262Z,1016.65
2018-12-13T00:26:38.268Z,1016.64
2018-12-13T00:27:38.275Z,1016.63
2018-12-13T00:28:38.291Z,1016.62
2018-12-13T00:29:38.290Z,1016.61
2018-12-13T00:30:38.288Z,1016.60
2018-12-13T00:31:38.286Z,1016.60
2018-12-13T00:32:38.286Z,1016.60
2018-12-13T00:33:38.297Z,1016.59
2018-12-13T00:34:38.288Z,1016.63
2018-12-13T00:35:38.304Z,1016.63
2018-12-13T00:36:39.793Z,1016.64
2018-12-13T00:37:38.315Z,1016.64
2018-12-13T00:38:38.318Z,1016.59
2018-12-13T00:39:38.317Z,1016.61
2018-12-13T00:40:38.323Z,1016.57
2018-12-13T00:41:38.327Z,1016.54
2018-12-13T00:42:38.332Z,1016.53
2018-12-13T00:43:38.339Z,1016.54
2018-12-13T00:44:38.351Z,1016.55
2018-12-13T00:45:38.340Z,1016.54
2018-12-13T00:46:38.352Z,1016.57
2018-12-13T00:47:38.355Z,1016.56
2018-12-13T00:48:38.354Z,1016.55
2018-12-13T00:49:38.362Z,1016.53
2018-12-13T00:50:38.368Z,1016.53
2018-12-13T00:51:38.367Z,1016.54
2018-12-13T00:52:38.376Z,1016.53
2018-12-13T00:53:38.373Z,1016.49
2018-12-13T00:54:38.383Z,1016.55
2018-12-13T00:55:38.391Z,1016.50
2018-12-13T00:56:38.386Z,1016.54
2018-12-13T00:57:38.393Z,1016.48
2018-12-13T00:58:38.398Z,1016.49
2018-12-13T00:59:38.401Z,1016.49
2018-12-13T01:00:38.401Z,1016.44
2018-12-13T01:01:38.407Z,1016.40
2018-12-13T01:02:38.417Z,1016.40
2018-12-13T01:03:38.417Z,1016.44
2018-12-13T01:04:38.428Z,1016.46
2018-12-13T01:05:38.428Z,1016.42
2018-12-13T01:06:38.433Z,1016.40
2018-12-13T01:07:38.429Z,1016.38
2018-12-13T01:08:38.441Z,1016.38
2018-12-13T01:09:38.441Z,1016.36
2018-12-13T01:10:38.441Z,1016.34
2018-12-13T01:11:38.449Z,1016.38
2018-12-13T01:12:38.449Z,1016.39
2018-12-13T01:13:38.455Z,1016.38
2018-12-13T01:14:38.457Z,1016.41
2018-12-13T01:15:38.465Z,1016.41
2018-12-13T01:16:38.467Z,1016.41
2018-12-13T01:17:38.475Z,1016.39
2018-12-13T01:18:38.480Z,1016.36
2018-12-13T01:19:38.472Z,1016.42
2018-12-13T01:20:38.493Z,1016.40
2018-12-13T01:21:38.489Z,1016.43
2018-12-13T01:22:38.495Z,1016.38
2018-12-13T01:23:38.495Z,1016.35
2018-12-13T01:24:38.502Z,1016.39
2018-12-13T01:25:38.507Z,1016.38
2018-12-13T01:26:38.505Z,1016.36
2018-12-13T01:27:38.519Z,1016.39
2018-12-13T01:28:38.516Z,1016.36
2018-12-13T01:29:38.525Z,1016.34
2018-12-13T01:30:38.525Z,1016.40
2018-12-13T01:31:38.534Z,1016.38
2018-12-13T01:32:38.531Z,1016.37
2018-12-13T01:33:38.535Z,1016.35
2018-12-13T01:34:38.539Z,1016.31
2018-12-13T01:35:38.550Z,1016.32
2018-12-13T01:36:38.553Z,1016.38
2018-12-13T01:37:38.557Z,1016.37
2018-12-13T01:38:38.559Z,1016.35
2018-12-13T01:39:38.562Z,1016.40
2018-12-13T01:40:38.564Z,1016.35
2018-12-13T01:41:38.570Z,1016.35
2018-12-13T01:42:38.572Z,1016.30
2018-12-13T01:43:38.587Z,1016.28
2018-12-13T01:44:38.586Z,1016.27
2018-12-13T01:45:38.585Z,1016.24
2018-12-13T01:46:38.588Z,1016.23
2018-12-13T01:47:38.591Z,1016.20
2018-12-13T01:48:38.599Z,1016.19
2018-12-13T01:49:38.597Z,1016.20
2018-12-13T01:50:38.609Z,1016.18
2018-12-13T01:51:38.619Z,1016.20
2018-12-13T01:52:38.616Z,1016.19
2018-12-13T01:53:38.617Z,1016.17
2018-12-13T01:54:38.626Z,1016.19
2018-12-13T01:55:38.623Z,1016.19
2018-12-13T01:56:38.635Z,1016.18
2018-12-13T01:57:38.626Z,1016.14
2018-12-13T01:58:38.643Z,1016.15
2018-12-13T01:59:38.625Z,1016.17
2018-12-13T02:00:38.647Z,1016.17
2018-12-13T02:01:38.639Z,1016.15
2018-12-13T02:02:38.654Z,1016.20
2018-12-13T02:03:38.651Z,1016.21
2018-12-13T02:04:38.667Z,1016.15
2018-12-13T02:05:38.664Z,1016.21
2018-12-13T02:06:38.669Z,1016.16
2018-12-13T02:07:38.673Z,1016.17
2018-12-13T02:08:38.675Z,1016.19
2018-12-13T02:09:38.792Z,1016.14
2018-12-13T02:10:38.682Z,1016.13
2018-12-13T02:11:38.702Z,1016.11
2018-12-13T02:12:38.697Z,1016.10
2018-12-13T02:13:38.781Z,1016.10
2018-12-13T02:14:38.714Z,1016.13
2018-12-13T02:15:38.721Z,1016.11
2018-12-13T02:16:38.715Z,1016.13
2018-12-13T02:17:38.711Z,1016.11
2018-12-13T02:18:38.718Z,1016.06
2018-12-13T02:19:38.719Z,1016.10
2018-12-13T02:20:38.729Z,1016.10
2018-12-13T02:21:38.782Z,1016.05
2018-12-13T02:22:38.737Z,1016.05
2018-12-13T02:23:38.765Z,1016.07
2018-12-13T02:24:38.747Z,1016.07
2018-12-13T02:25:39.469Z,1016.04
2018-12-13T02:26:38.755Z,1016.05
2018-12-13T02:27:38.769Z,1016.09
2018-12-13T02:28:38.757Z,1016.08
2018-12-13T02:29:38.776Z,1016.07
2018-12-13T02:30:38.763Z,1016.02
2018-12-13T02:31:38.784Z,1016.06
2018-12-13T02:32:38.774Z,1016.04
2018-12-13T02:33:38.773Z,1016.06
2018-12-13T02:34:38.779Z,1016.07
2018-12-13T02:35:38.795Z,1016.08
2018-12-13T02:36:38.796Z,1016.08
2018-12-13T02:37:38.806Z,1016.04
2018-12-13T02:38:38.799Z,1016.03
2018-12-13T02:39:38.797Z,1016.01
2018-12-13T02:40:38.805Z,1016.02
2018-12-13T02:41:38.813Z,1016.03
2018-12-13T02:42:38.815Z,1016.01
2018-12-13T02:43:38.830Z,1016.03
2018-12-13T02:44:38.833Z,1016.03
2018-12-13T02:45:38.834Z,1016.01
2018-12-13T02:46:38.831Z,1016.04
2018-12-13T02:47:38.843Z,1015.96
2018-12-13T02:48:38.834Z,1015.97
2018-12-13T02:49:38.851Z,1015.93
2018-12-13T02:50:38.843Z,1016.00
2018-12-13T02:51:38.857Z,1015.92
2018-12-13T02:52:38.857Z,1015.95
2018-12-13T02:53:38.863Z,1015.90
2018-12-13T02:54:38.877Z,1015.93
2018-12-13T02:55:38.936Z,1015.92
2018-12-13T02:56:38.869Z,1015.92
2018-12-13T02:57:38.873Z,1015.91
2018-12-13T02:58:38.883Z,1015.85
2018-12-13T02:59:38.883Z,1015.85
2018-12-13T03:00:38.888Z,1015.84
2018-12-13T03:01:38.891Z,1015.79
2018-12-13T03:02:38.892Z,1015.78
2018-12-13T03:03:38.910Z,1015.79
2018-12-13T03:04:38.910Z,1015.77
2018-12-13T03:05:38.914Z,1015.74
2018-12-13T03:06:38.909Z,1015.74
2018-12-13T03:07:38.919Z,1015.71
2018-12-13T03:08:38.917Z,1015.71
2018-12-13T03:09:38.931Z,1015.69
2018-12-13T03:10:38.925Z,1015.68
2018-12-13T03:11:38.948Z,1015.65
2018-12-13T03:12:38.929Z,1015.62
2018-12-13T03:13:38.943Z,1015.63
2018-12-13T03:14:38.949Z,1015.59
2018-12-13T03:15:38.949Z,1015.60
2018-12-13T03:16:38.948Z,1015.58
2018-12-13T03:17:38.963Z,1015.61
2018-12-13T03:18:38.956Z,1015.61
2018-12-13T03:19:38.964Z,1015.62
2018-12-13T03:20:38.971Z,1015.62
2018-12-13T03:21:38.980Z,1015.62
2018-12-13T03:22:38.986Z,1015.62
2018-12-13T03:23:38.989Z,1015.64
2018-12-13T03:24:38.987Z,1015.62
2018-12-13T03:25:38.991Z,1015.57
2018-12-13T03:26:38.992Z,1015.56
2018-12-13T03:27:39.001Z,1015.57
2018-12-13T03:28:39.002Z,1015.53
2018-12-13T03:29:39.021Z,1015.52
2018-12-13T03:30:39.015Z,1015.56
2018-12-13T03:31:39.021Z,1015.54
2018-12-13T03:32:39.030Z,1015.54
2018-12-13T03:33:39.036Z,1015.51
2018-12-13T03:34:39.021Z,1015.49
2018-12-13T03:35:39.029Z,1015.44
2018-12-13T03:36:39.029Z,1015.46
2018-12-13T03:37:39.042Z,1015.47
2018-12-13T03:38:39.045Z,1015.45
2018-12-13T03:39:39.066Z,1015.44
2018-12-13T03:40:39.063Z,1015.42
2018-12-13T03:41:39.060Z,1015.41
2018-12-13T03:42:39.058Z,1015.40
2018-12-13T03:43:39.066Z,1015.43
2018-12-13T03:44:39.072Z,1015.41
2018-12-13T03:45:39.071Z,1015.42
2018-12-13T03:46:39.064Z,1015.38
2018-12-13T03:47:39.082Z,1015.37
2018-12-13T03:48:39.076Z,1015.38
2018-12-13T03:49:39.089Z,1015.39
2018-12-13T03:50:39.087Z,1015.35
2018-12-13T03:51:39.094Z,1015.36
2018-12-13T03:52:39.098Z,1015.34
2018-12-13T03:53:39.100Z,1015.35
2018-12-13T03:54:39.109Z,1015.35
2018-12-13T03:55:39.112Z,1015.30
2018-12-13T03:56:39.120Z,1015.32
2018-12-13T03:57:39.118Z,1015.30
2018-12-13T03:58:39.119Z,1015.30
2018-12-13T03:59:39.134Z,1015.27
2018-12-13T04:00:39.136Z,1015.28
2018-12-13T04:01:39.167Z,1015.24
2018-12-13T04:02:39.146Z,1015.25
2018-12-13T04:03:39.141Z,1015.23
2018-12-13T04:04:39.144Z,1015.22
2018-12-13T04:05:39.153Z,1015.21
2018-12-13T04:06:39.158Z,1015.21
2018-12-13T04:07:39.162Z,1015.21
2018-12-13T04:08:39.162Z,1015.20
2018-12-13T04:09:39.167Z,1015.22
2018-12-13T04:10:39.171Z,1015.22
2018-12-13T04:11:39.181Z,1015.23
2018-12-13T04:12:39.181Z,1015.19
2018-12-13T04:13:39.182Z,1015.17
2018-12-13T04:14:39.183Z,1015.20
2018-12-13T04:15:39.196Z,1015.21
2018-12-13T04:16:39.196Z,1015.18
2018-12-13T04:17:39.196Z,1015.22
2018-12-13T04:18:39.197Z,1015.18
2018-12-13T04:19:39.207Z,1015.21
2018-12-13T04:20:39.210Z,1015.15
2018-12-13T04:21:39.213Z,1015.17
2018-12-13T04:22:39.228Z,1015.18
2018-12-13T04:23:39.227Z,1015.17
2018-12-13T04:24:39.227Z,1015.16
2018-12-13T04:25:39.226Z,1015.11
2018-12-13T04:26:39.241Z,1015.12
2018-12-13T04:27:39.236Z,1015.10
2018-12-13T04:28:39.241Z,1015.07
2018-12-13T04:29:39.242Z,1015.08
2018-12-13T04:30:39.245Z,1015.12
2018-12-13T04:31:39.254Z,1015.09
2018-12-13T04:32:39.263Z,1015.09
2018-12-13T04:33:39.263Z,1015.06
2018-12-13T04:34:39.263Z,1015.07
2018-12-13T04:35:39.272Z,1015.06
2018-12-13T04:36:39.284Z,1015.04
2018-12-13T04:37:39.279Z,1015.01
2018-12-13T04:38:39.292Z,1015.02
2018-12-13T04:39:39.283Z,1015.01
2018-12-13T04:40:39.289Z,1014.99
2018-12-13T04:41:39.291Z,1014.95
2018-12-13T04:42:39.293Z,1014.97
2018-12-13T04:43:39.305Z,1014.94
2018-12-13T04:44:39.303Z,1014.90
2018-12-13T04:45:39.309Z,1014.92
2018-12-13T04:46:39.310Z,1014.92
2018-12-13T04:47:39.326Z,1014.92
2018-12-13T04:48:39.333Z,1014.93
2018-12-13T04:49:39.325Z,1014.93
2018-12-13T04:50:39.329Z,1014.91
2018-12-13T04:51:39.335Z,1014.93
2018-12-13T04:52:39.337Z,1014.95
2018-12-13T04:53:39.341Z,1014.94
2018-12-13T04:54:39.343Z,1014.94
2018-12-13T04:55:39.349Z,1014.96
2018-12-13T04:56:39.351Z,1014.96
2018-12-13T04:57:39.357Z,1014.96
2018-12-13T04:58:39.356Z,1014.97
2018-12-13T04:59:39.366Z,1014.96
2018-12-13T05:00:39.366Z,1014.92
2018-12-13T05:01:39.368Z,1014.95
2018-12-13T05:02:39.378Z,1014.89
2018-12-13T05:03:39.387Z,1014.92
2018-12-13T05:04:39.384Z,1014.92
2018-12-13T05:05:39.388Z,1014.96
2018-12-13T05:06:39.392Z,1014.97
2018-12-13T05:07:41.854Z,1014.97
2018-12-13T05:08:39.402Z,1014.96
2018-12-13T05:09:39.404Z,1014.97
2018-12-13T05:10:39.406Z,1014.97
2018-12-13T05:11:39.410Z,1014.96
2018-12-13T05:12:39.416Z,1014.96
2018-12-13T05:13:39.422Z,1014.94
2018-12-13T05:14:39.422Z,1014.93
2018-12-13T05:15:39.428Z,1014.93
2018-12-13T05:16:39.436Z,1014.95
2018-12-13T05:17:39.439Z,1014.94
2018-12-13T05:18:39.439Z,1014.95
2018-12-13T05:19:39.448Z,1014.93
2018-12-13T05:20:39.447Z,1014.90
2018-12-13T05:21:39.452Z,1014.90
2018-12-13T05:22:39.454Z,1014.88
2018-12-13T05:23:39.465Z,1014.88
2018-12-13T05:24:39.461Z,1014.84
2018-12-13T05:25:39.468Z,1014.85
2018-12-13T05:26:39.473Z,1014.83
2018-12-13T05:27:39.482Z,1014.81
2018-12-13T05:28:39.481Z,1014.80
2018-12-13T05:29:39.479Z,1014.76
2018-12-13T05:30:39.488Z,1014.77
2018-12-13T05:31:39.490Z,1014.74
2018-12-13T05:32:39.491Z,1014.78
2018-12-13T05:33:39.497Z,1014.75
2018-12-13T05:34:39.498Z,1014.73
2018-12-13T05:35:39.506Z,1014.75
2018-12-13T05:36:39.515Z,1014.75
2018-12-13T05:37:39.512Z,1014.75
2018-12-13T05:38:39.518Z,1014.72
2018-12-13T05:39:39.552Z,1014.74
2018-12-13T05:40:39.526Z,1014.75
2018-12-13T05:41:39.528Z,1014.75
2018-12-13T05:42:39.544Z,1014.79
2018-12-13T05:43:39.536Z,1014.79
2018-12-13T05:44:39.538Z,1014.76
2018-12-13T05:45:39.548Z,1014.77
2018-12-13T05:46:39.546Z,1014.78
2018-12-13T05:47:39.556Z,1014.77
2018-12-13T05:48:39.562Z,1014.76
2018-12-13T05:49:39.556Z,1014.77
2018-12-13T05:50:39.564Z,1014.75
2018-12-13T05:51:39.569Z,1014.76
2018-12-13T05:52:39.574Z,1014.74
2018-12-13T05:53:39.571Z,1014.75
2018-12-13T05:54:39.579Z,1014.74
2018-12-13T05:55:39.641Z,1014.72
2018-12-13T05:56:39.582Z,1014.76
2018-12-13T05:57:39.594Z,1014.72
2018-12-13T05:58:39.597Z,1014.74
2018-12-13T05:59:39.602Z,1014.71
2018-12-13T06:00:39.607Z,1014.69
2018-12-13T06:01:39.604Z,1014.70
2018-12-13T06:02:39.609Z,1014.71
2018-12-13T06:03:39.617Z,1014.72
2018-12-13T06:04:39.622Z,1014.70
2018-12-13T06:05:39.622Z,1014.69
2018-12-13T06:06:39.629Z,1014.67
2018-12-13T06:07:39.632Z,1014.69
2018-12-13T06:08:39.638Z,1014.70
2018-12-13T06:09:39.642Z,1014.71
2018-12-13T06:10:39.647Z,1014.71
2018-12-13T06:11:39.650Z,1014.69
2018-12-13T06:12:39.648Z,1014.68
2018-12-13T06:13:39.652Z,1014.71
2018-12-13T06:14:39.664Z,1014.70
2018-12-13T06:15:39.664Z,1014.69
2018-12-13T06:16:39.674Z,1014.61
2018-12-13T06:17:40.939Z,1014.65
2018-12-13T06:18:39.674Z,1014.67
2018-12-13T06:19:39.695Z,1014.68
2018-12-13T06:20:39.683Z,1014.71
2018-12-13T06:21:39.691Z,1014.69
2018-12-13T06:22:39.683Z,1014.69
2018-12-13T06:23:39.697Z,1014.70
2018-12-13T06:24:39.712Z,1014.74
2018-12-13T06:25:39.724Z,1014.73
2018-12-13T06:26:39.708Z,1014.73
2018-12-13T06:27:39.707Z,1014.76
2018-12-13T06:28:39.716Z,1014.71
2018-12-13T06:29:41.933Z,1014.75
2018-12-13T06:30:39.728Z,1014.73
2018-12-13T06:31:39.727Z,1014.76
2018-12-13T06:32:39.729Z,1014.74
2018-12-13T06:33:39.735Z,1014.79
2018-12-13T06:34:39.734Z,1014.76
2018-12-13T06:35:39.743Z,1014.78
2018-12-13T06:36:39.750Z,1014.81
2018-12-13T06:37:39.751Z,1014.77
2018-12-13T06:38:39.752Z,1014.81
2018-12-13T06:39:39.759Z,1014.83
2018-12-13T06:40:39.769Z,1014.81
2018-12-13T06:41:39.765Z,1014.83
2018-12-13T06:42:39.771Z,1014.81
2018-12-13T06:43:39.801Z,1014.80
2018-12-13T06:44:39.773Z,1014.80
2018-12-13T06:45:39.787Z,1014.82
2018-12-13T06:46:39.787Z,1014.82
2018-12-13T06:47:39.787Z,1014.81
2018-12-13T06:48:39.791Z,1014.80
2018-12-13T06:49:39.791Z,1014.78
2018-12-13T06:50:39.801Z,1014.83
2018-12-13T06:51:39.803Z,1014.81
2018-12-13T06:52:39.807Z,1014.81
2018-12-13T06:53:39.810Z,1014.83
2018-12-13T06:54:39.811Z,1014.81
2018-12-13T06:55:39.822Z,1014.81
2018-12-13T06:56:39.823Z,1014.83
2018-12-13T06:57:39.827Z,1014.83
2018-12-13T06:58:39.829Z,1014.80
2018-12-13T06:59:39.836Z,1014.79
2018-12-13T07:00:39.837Z,1014.84
2018-12-13T07:01:39.847Z,1014.84
2018-12-13T07:02:39.847Z,1014.82
2018-12-13T07:03:39.846Z,1014.84
2018-12-13T07:04:39.851Z,1014.85
2018-12-13T07:05:39.859Z,1014.84
2018-12-13T07:06:39.849Z,1014.83
2018-12-13T07:07:39.869Z,1014.85
2018-12-13T07:08:39.877Z,1014.84
2018-12-13T07:09:39.873Z,1014.84
2018-12-13T07:10:39.883Z,1014.82
2018-12-13T07:11:39.885Z,1014.83
2018-12-13T07:12:39.885Z,1014.84
2018-12-13T07:13:39.893Z,1014.85
2018-12-13T07:14:39.895Z,1014.84
2018-12-13T07:15:39.899Z,1014.85
2018-12-13T07:16:39.901Z,1014.85
2018-12-13T07:17:39.905Z,1014.89
2018-12-13T07:18:39.915Z,1014.83
2018-12-13T07:19:39.913Z,1014.87
2018-12-13T07:20:39.917Z,1014.85
2018-12-13T07:21:39.919Z,1014.90
2018-12-13T07:22:39.922Z,1014.91
2018-12-13T07:23:39.937Z,1014.99
2018-12-13T07:24:39.936Z,1014.97
2018-12-13T07:25:39.933Z,1014.97
2018-12-13T07:26:39.948Z,1014.93
2018-12-13T07:27:39.955Z,1014.97
2018-12-13T07:28:39.945Z,1015.01
2018-12-13T07:29:39.952Z,1015.00
2018-12-13T07:30:39.955Z,1015.04
2018-12-13T07:31:39.958Z,1015.03
2018-12-13T07:32:39.959Z,1015.01
2018-12-13T07:33:39.964Z,1015.02
2018-12-13T07:34:39.967Z,1015.05
2018-12-13T07:35:39.971Z,1015.02
2018-12-13T07:36:39.978Z,1015.06
2018-12-13T07:37:39.977Z,1015.07
2018-12-13T07:38:39.985Z,1015.09
2018-12-13T07:39:39.989Z,1015.05
2018-12-13T07:40:39.995Z,1015.08
2018-12-13T07:41:39.993Z,1015.08
2018-12-13T07:42:40.007Z,1015.05
2018-12-13T07:43:40.006Z,1015.06
2018-12-13T07:44:40.005Z,1015.05
2018-12-13T07:45:40.020Z,1015.07
2018-12-13T07:46:40.017Z,1015.02
2018-12-13T07:47:40.015Z,1015.00
2018-12-13T07:48:40.035Z,1015.02
2018-12-13T07:49:40.033Z,1015.09
2018-12-13T07:50:40.026Z,1015.08
2018-12-13T07:51:40.033Z,1015.10
2018-12-13T07:52:40.054Z,1015.11
2018-12-13T07:53:40.039Z,1015.10
2018-12-13T07:54:40.042Z,1015.12
2018-12-13T07:55:40.048Z,1015.13
2018-12-13T07:56:40.063Z,1015.10
2018-12-13T07:57:40.054Z,1015.11
2018-12-13T07:58:40.062Z,1015.13
2018-12-13T07:59:40.063Z,1015.15
2018-12-13T08:00:40.074Z,1015.16
2018-12-13T08:01:40.104Z,1015.17
2018-12-13T08:02:40.067Z,1015.13
2018-12-13T08:03:40.086Z,1015.13
2018-12-13T08:04:40.094Z,1015.12
2018-12-13T08:05:40.086Z,1015.14
2018-12-13T08:06:40.092Z,1015.12
2018-12-13T08:07:40.104Z,1015.15
2018-12-13T08:08:40.105Z,1015.15
2018-12-13T08:09:40.101Z,1015.18
2018-12-13T08:10:40.103Z,1015.17
2018-12-13T08:11:40.112Z,1015.21
2018-12-13T08:12:40.103Z,1015.18
2018-12-13T08:13:40.124Z,1015.17
2018-12-13T08:14:40.118Z,1015.15
2018-12-13T08:15:40.122Z,1015.16
2018-12-13T08:16:40.127Z,1015.18
2018-12-13T08:17:40.143Z,1015.18
2018-12-13T08:18:40.137Z,1015.16
2018-12-13T08:19:40.139Z,1015.17
2018-12-13T08:20:40.143Z,1015.15
2018-12-13T08:21:40.153Z,1015.21
2018-12-13T08:22:40.153Z,1015.17
2018-12-13T08:23:40.158Z,1015.19
2018-12-13T08:24:40.157Z,1015.19
2018-12-13T08:25:40.184Z,1015.19
2018-12-13T08:26:40.163Z,1015.17
2018-12-13T08:27:40.174Z,1015.21
2018-12-13T08:28:40.176Z,1015.23
2018-12-13T08:29:40.179Z,1015.24
2018-12-13T08:30:40.183Z,1015.19
2018-12-13T08:31:40.181Z,1015.22
2018-12-13T08:32:40.189Z,1015.20
2018-12-13T08:33:40.210Z,1015.21
2018-12-13T08:34:40.198Z,1015.20
2018-12-13T08:35:40.204Z,1015.19
2018-12-13T08:36:40.203Z,1015.24
2018-12-13T08:37:40.207Z,1015.23
2018-12-13T08:38:40.208Z,1015.23
2018-12-13T08:39:40.203Z,1015.24
2018-12-13T08:40:40.222Z,1015.31
2018-12-13T08:41:40.220Z,1015.27
2018-12-13T08:42:40.230Z,1015.25
2018-12-13T08:43:40.233Z,1015.27
2018-12-13T08:44:40.240Z,1015.21
2018-12-13T08:45:40.240Z,1015.22
2018-12-13T08:46:40.239Z,1015.25
2018-12-13T08:47:40.248Z,1015.26
2018-12-13T08:48:40.252Z,1015.24
2018-12-13T08:49:40.244Z,1015.25
2018-12-13T08:50:40.250Z,1015.24
2018-12-13T08:51:40.262Z,1015.21
2018-12-13T08:52:40.260Z,1015.23
2018-12-13T08:53:40.268Z,1015.23
2018-12-13T08:54:40.272Z,1015.21
2018-12-13T08:55:40.276Z,1015.20
2018-12-13T08:56:40.278Z,1015.19
2018-12-13T08:57:40.287Z,1015.17
2018-12-13T08:58:40.294Z,1015.19
2018-12-13T08:59:40.291Z,1015.22
2018-12-13T09:00:40.296Z,1015.21
2018-12-13T09:01:40.304Z,1015.22
2018-12-13T09:02:40.297Z,1015.23
2018-12-13T09:03:40.326Z,1015.26
2018-12-13T09:04:40.307Z,1015.24
2018-12-13T09:05:40.315Z,1015.23
2018-12-13T09:06:40.323Z,1015.23
2018-12-13T09:07:40.323Z,1015.20
2018-12-13T09:08:40.328Z,1015.22
2018-12-13T09:09:40.329Z,1015.20
2018-12-13T09:10:40.333Z,1015.17
2018-12-13T09:11:40.335Z,1015.18
2018-12-13T09:12:40.342Z,1015.03
2018-12-13T09:13:40.345Z,1015.18
2018-12-13T09:14:40.351Z,1015.16
2018-12-13T09:15:40.353Z,1015.17
2018-12-13T09:16:40.352Z,1015.17
2018-12-13T09:17:40.361Z,1015.19
2018-12-13T09:18:40.371Z,1015.19
2018-12-13T09:19:40.363Z,1015.16
2018-12-13T09:20:40.369Z,1015.17
2018-12-13T09:21:40.379Z,1015.17
2018-12-13T09:22:40.379Z,1015.19
2018-12-13T09:23:40.381Z,1015.17
2018-12-13T09:24:40.386Z,1015.14
2018-12-13T09:25:40.389Z,1015.11
2018-12-13T09:26:40.392Z,1015.12
2018-12-13T09:27:40.403Z,1015.14
2018-12-13T09:28:40.402Z,1015.13
2018-12-13T09:29:40.404Z,1015.13
2018-12-13T09:30:40.415Z,1015.12
2018-12-13T09:31:40.409Z,1015.11
2018-12-13T09:32:41.545Z,1015.16
2018-12-13T09:33:40.428Z,1015.15
2018-12-13T09:34:40.429Z,1015.14
2018-12-13T09:35:40.433Z,1015.13
2018-12-13T09:36:40.426Z,1015.18
2018-12-13T09:37:40.435Z,1015.17
2018-12-13T09:38:40.433Z,1015.20
2018-12-13T09:39:40.444Z,1015.17
2018-12-13T09:40:40.445Z,1015.17
2018-12-13T09:41:40.451Z,1015.21
2018-12-13T09:42:40.448Z,1015.19
2018-12-13T09:43:40.455Z,1015.18
2018-12-13T09:44:40.456Z,1015.22
2018-12-13T09:45:40.454Z,1015.22
2018-12-13T09:46:40.470Z,1015.25
2018-12-13T09:47:40.466Z,1015.25
2018-12-13T09:48:40.480Z,1015.24
2018-12-13T09:49:40.470Z,1015.28
2018-12-13T09:50:40.487Z,1015.26
2018-12-13T09:51:40.482Z,1015.21
2018-12-13T09:52:40.491Z,1015.25
2018-12-13T09:53:40.492Z,1015.21
2018-12-13T09:54:40.491Z,1015.27
2018-12-13T09:55:40.502Z,1015.24
2018-12-13T09:56:40.508Z,1015.21
2018-12-13T09:57:40.504Z,1015.18
2018-12-13T09:58:40.507Z,1015.19
2018-12-13T09:59:40.512Z,1015.14
2018-12-13T10:00:40.515Z,1015.16
2018-12-13T10:01:40.520Z,1015.17
2018-12-13T10:02:40.521Z,1015.15
2018-12-13T10:03:40.523Z,1015.16
2018-12-13T10:04:40.536Z,1015.10
2018-12-13T10:05:40.534Z,1015.11
2018-12-13T10:06:40.537Z,1015.14
2018-12-13T10:07:40.542Z,1015.08
2018-12-13T10:08:46.159Z,1015.07
2018-12-13T10:09:40.553Z,1015.03
2018-12-13T10:10:40.570Z,1015.05
2018-12-13T10:11:40.550Z,1015.02
2018-12-13T10:12:40.570Z,1015.01
2018-12-13T10:13:40.558Z,1015.03
2018-12-13T10:14:40.564Z,1015.01
2018-12-13T10:15:40.569Z,1015.00
2018-12-13T10:16:40.575Z,1014.92
2018-12-13T10:17:40.580Z,1014.93
2018-12-13T10:18:40.583Z,1014.90
2018-12-13T10:19:40.598Z,1014.91
2018-12-13T10:20:40.590Z,1014.90
2018-12-13T10:21:40.597Z,1014.86
2018-12-13T10:22:40.593Z,1014.84
2018-12-13T10:23:40.653Z,1014.92
2018-12-13T10:24:40.606Z,1014.88
2018-12-13T10:25:40.606Z,1014.89
2018-12-13T10:26:40.610Z,1014.83
2018-12-13T10:27:40.617Z,1014.82
2018-12-13T10:28:40.613Z,1014.85
2018-12-13T10:29:40.621Z,1014.85
2018-12-13T10:30:40.623Z,1014.79
2018-12-13T10:31:40.622Z,1014.84
2018-12-13T10:32:40.632Z,1014.81
2018-12-13T10:33:40.634Z,1014.80
2018-12-13T10:34:40.634Z,1014.75
2018-12-13T10:35:40.641Z,1014.78
2018-12-13T10:36:40.641Z,1014.72
2018-12-13T10:37:40.642Z,1014.70
2018-12-13T10:38:40.651Z,1014.73
2018-12-13T10:39:40.653Z,1014.73
2018-12-13T10:40:40.656Z,1014.74
2018-12-13T10:41:40.661Z,1014.67
2018-12-13T10:42:40.669Z,1014.71
2018-12-13T10:43:40.671Z,1014.70
2018-12-13T10:44:40.671Z,1014.65
2018-12-13T10:45:40.675Z,1014.69
2018-12-13T10:46:40.669Z,1014.65
2018-12-13T10:47:40.683Z,1014.66
2018-12-13T10:48:40.781Z,1014.62
2018-12-13T10:49:40.686Z,1014.60
2018-12-13T10:50:40.688Z,1014.68
2018-12-13T10:51:40.698Z,1014.66
2018-12-13T10:52:41.645Z,1014.68
2018-12-13T10:53:40.710Z,1014.66
2018-12-13T10:54:40.707Z,1014.70
2018-12-13T10:55:40.713Z,1014.70
2018-12-13T10:56:40.719Z,1014.71
2018-12-13T10:57:40.723Z,1014.69
2018-12-13T10:58:41.648Z,1014.70
2018-12-13T10:59:40.725Z,1014.71
2018-12-13T11:00:40.756Z,1014.68
2018-12-13T11:01:40.737Z,1014.60
2018-12-13T11:02:40.751Z,1014.64
2018-12-13T11:03:40.742Z,1014.68
2018-12-13T11:04:40.755Z,1014.65
2018-12-13T11:05:40.751Z,1014.66
2018-12-13T11:06:40.796Z,1014.67
2018-12-13T11:07:40.753Z,1014.68
2018-12-13T11:08:40.761Z,1014.68
2018-12-13T11:09:40.760Z,1014.62
2018-12-13T11:10:40.773Z,1014.66
2018-12-13T11:11:40.772Z,1014.64
2018-12-13T11:12:40.772Z,1014.61
2018-12-13T11:13:40.779Z,1014.60
2018-12-13T11:14:40.832Z,1014.60
2018-12-13T11:15:40.783Z,1014.58
2018-12-13T11:16:41.656Z,1014.56
2018-12-13T11:17:40.794Z,1014.57
2018-12-13T11:18:40.809Z,1014.58
2018-12-13T11:19:40.803Z,1014.57
2018-12-13T11:20:40.808Z,1014.55
2018-12-13T11:21:40.812Z,1014.56
2018-12-13T11:22:40.820Z,1014.51
2018-12-13T11:23:40.814Z,1014.54
2018-12-13T11:24:40.889Z,1014.52
2018-12-13T11:25:40.816Z,1014.49
2018-12-13T11:26:40.826Z,1014.52
2018-12-13T11:27:40.829Z,1014.47
2018-12-13T11:28:40.861Z,1014.46
2018-12-13T11:29:40.839Z,1014.49
2018-12-13T11:30:40.840Z,1014.47
2018-12-13T11:31:40.844Z,1014.50
2018-12-13T11:32:40.862Z,1014.46
2018-12-13T11:33:40.854Z,1014.48
2018-12-13T11:34:40.861Z,1014.49
2018-12-13T11:35:40.859Z,1014.50
2018-12-13T11:36:40.863Z,1014.49
2018-12-13T11:37:40.873Z,1014.43
2018-12-13T11:38:40.883Z,1014.45
2018-12-13T11:39:40.884Z,1014.41
2018-12-13T11:40:40.887Z,1014.39
2018-12-13T11:41:40.885Z,1014.34
2018-12-13T11:42:40.895Z,1014.34
2018-12-13T11:43:40.893Z,1014.28
2018-12-13T11:44:40.900Z,1014.27
2018-12-13T11:45:40.901Z,1014.26
2018-12-13T11:46:40.905Z,1014.21
2018-12-13T11:47:40.907Z,1014.19
2018-12-13T11:48:40.912Z,1014.18
2018-12-13T11:49:40.911Z,1014.15
2018-12-13T11:50:40.924Z,1014.11
2018-12-13T11:51:40.923Z,1014.12
2018-12-13T11:52:40.923Z,1014.10
2018-12-13T11:53:40.933Z,1014.10
2018-12-13T11:54:40.937Z,1014.08
2018-12-13T11:55:40.937Z,1014.08
2018-12-13T11:56:41.671Z,1014.14
2018-12-13T11:57:40.941Z,1014.11
2018-12-13T11:58:40.966Z,1014.09
2018-12-13T11:59:40.951Z,1014.07
2018-12-13T12:00:40.985Z,1014.09
2018-12-13T12:01:40.957Z,1014.11
2018-12-13T12:02:40.967Z,1014.07
2018-12-13T12:03:40.971Z,1014.07
2018-12-13T12:04:41.007Z,1014.04
2018-12-13T12:05:40.976Z,1014.04